Time;durP1;ratioP1;P1;durP2;ratioP2;P2;SDS_P1;SDS_P2;PMS_P1;PMS_P2;Temp;Humidity;BMP_temperature;BMP_pressure;BME280_temperature;BME280_humidity;BME280_pressure;Samples;Min_cycle;Max_cycle;Signal;HPM_P1;HPM_P2
2022/08/27 00:00:29;;;;;;;6.10;4.70;;;;;;;22.74;38.20;100066.65;1666514;85;21114;-69
2022/08/27 00:02:56;;;;;;;8.63;4.62;;;;;;;22.71;38.33;100060.95;1657369;84;21031;-68
2022/08/27 00:05:25;;;;;;;5.35;4.85;;;;;;;22.69;38.47;100059.86;1664298;85;21204;-69
2022/08/27 00:07:52;;;;;;;7.47;4.72;;;;;;;22.65;38.53;100053.36;1653788;85;21119;-68
2022/08/27 00:10:23;;;;;;;6.47;5.10;;;;;;;22.64;38.66;100062.61;1624718;86;21562;-67
2022/08/27 00:12:55;;;;;;;6.97;5.25;;;;;;;22.62;38.65;100058.00;1615486;87;20984;-68
2022/08/27 00:15:22;;;;;;;9.40;5.53;;;;;;;22.61;38.71;100064.51;1618583;88;21077;-67
2022/08/27 00:17:48;;;;;;;5.10;4.60;;;;;;;22.59;38.84;100060.45;1608499;88;21511;-67
2022/08/27 00:20:20;;;;;;;6.87;4.75;;;;;;;22.57;38.95;100052.57;1606864;88;21086;-69
2022/08/27 00:22:46;;;;;;;9.45;5.53;;;;;;;22.55;39.06;100065.06;1633277;86;21015;-68
2022/08/27 00:25:12;;;;;;;6.67;5.22;;;;;;;22.54;39.14;100051.75;1595654;85;21158;-68
2022/08/27 00:27:39;;;;;;;7.62;5.47;;;;;;;22.52;39.24;100051.22;1610770;88;21047;-68
2022/08/27 00:30:11;;;;;;;6.90;5.05;;;;;;;22.50;39.17;100055.56;1601147;88;21035;-69
2022/08/27 00:32:39;;;;;;;8.05;5.92;;;;;;;22.50;39.08;100066.98;1593339;88;21543;-68
2022/08/27 00:35:07;;;;;;;5.97;5.40;;;;;;;22.50;39.01;100062.34;1632655;86;21118;-70
2022/08/27 00:37:35;;;;;;;10.53;6.42;;;;;;;22.51;39.14;100059.11;1650118;86;21776;-67
2022/08/27 00:40:05;;;;;;;6.00;5.10;;;;;;;22.51;39.27;100061.83;1648659;83;21119;-68
2022/08/27 00:42:32;;;;;;;10.32;5.53;;;;;;;22.50;39.27;100058.27;1709001;83;20978;-68
2022/08/27 00:44:59;;;;;;;10.63;6.17;;;;;;;22.49;39.31;100059.38;1693761;83;21013;-68
2022/08/27 00:47:29;;;;;;;5.75;5.12;;;;;;;22.49;39.34;100059.91;1626241;83;21146;-68
2022/08/27 00:50:01;;;;;;;7.72;5.78;;;;;;;22.49;39.38;100061.26;1620119;87;21050;-67
2022/08/27 00:52:35;;;;;;;8.20;6.03;;;;;;;22.47;39.26;100061.56;1615714;87;21085;-68
2022/08/27 00:55:17;;;;;;;6.55;5.00;;;;;;;22.46;39.32;100059.92;1614081;87;21530;-67
2022/08/27 00:57:48;;;;;;;6.97;5.58;;;;;;;22.46;39.26;100062.63;1584968;88;21097;-67
2022/08/27 01:00:18;;;;;;;9.85;5.87;;;;;;;22.44;39.37;100060.73;1614160;87;21595;-68
2022/08/27 01:02:46;;;;;;;6.47;5.08;;;;;;;22.43;39.40;100060.45;1617174;87;21592;-67
2022/08/27 01:05:20;;;;;;;8.30;5.45;;;;;;;22.42;39.47;100064.27;1619200;87;21087;-68
2022/08/27 01:07:51;;;;;;;7.62;5.08;;;;;;;22.39;39.54;100064.00;1622256;87;21511;-67
2022/08/27 01:10:21;;;;;;;10.48;5.55;;;;;;;22.37;39.60;100062.91;1616257;87;21098;-70
2022/08/27 01:12:52;;;;;;;7.30;5.42;;;;;;;22.37;39.60;100066.18;1624510;86;21135;-67
2022/08/27 01:15:21;;;;;;;7.03;5.17;;;;;;;22.35;39.64;100063.18;1636120;86;21554;-68
2022/08/27 01:17:49;;;;;;;6.92;5.28;;;;;;;22.34;39.72;100060.77;1629589;86;21079;-68
2022/08/27 01:20:23;;;;;;;11.10;5.35;;;;;;;22.33;39.89;100063.20;1625239;86;21597;-68
2022/08/27 01:23:05;;;;;;;8.73;5.28;;;;;;;22.29;39.92;100060.21;1621545;86;21079;-67
2022/08/27 01:25:32;;;;;;;5.37;4.97;;;;;;;22.27;39.99;100060.22;1617782;87;21001;-70
2022/08/27 01:28:00;;;;;;;6.87;5.40;;;;;;;22.24;40.03;100064.80;1616997;87;21059;-67
2022/08/27 01:30:27;;;;;;;7.40;5.22;;;;;;;22.23;40.03;100065.91;1616421;87;21068;-68
2022/08/27 01:32:54;;;;;;;5.83;4.97;;;;;;;22.23;40.16;100061.83;1612667;87;21661;-72
2022/08/27 01:35:22;;;;;;;10.00;6.22;;;;;;;22.21;40.14;100059.91;1625375;87;21079;-68
2022/08/27 01:37:52;;;;;;;7.47;5.80;;;;;;;22.19;40.21;100064.27;1656478;85;21486;-67
2022/08/27 01:40:20;;;;;;;6.30;5.20;;;;;;;22.18;40.29;100069.42;1658000;85;21043;-67
2022/08/27 01:42:50;;;;;;;8.38;5.03;;;;;;;22.16;40.31;100071.59;1670781;85;21094;-67
2022/08/27 01:45:25;;;;;;;7.45;5.00;;;;;;;22.16;40.30;100077.02;1653194;85;21470;-69
2022/08/27 01:47:52;;;;;;;8.80;5.00;;;;;;;22.16;40.30;100077.02;1648729;85;21065;-67
2022/08/27 01:50:23;;;;;;;8.90;6.17;;;;;;;22.16;40.34;100071.04;1651837;85;21316;-67
2022/08/27 01:52:51;;;;;;;9.28;5.40;;;;;;;22.16;40.37;100072.95;1650375;85;21062;-70
2022/08/27 01:55:22;;;;;;;8.40;5.25;;;;;;;22.16;40.40;100075.11;1649726;85;21026;-69
2022/08/27 01:57:48;;;;;;;6.03;4.85;;;;;;;22.17;40.40;100066.45;1652239;85;21077;-70
2022/08/27 02:00:20;;;;;;;6.95;5.60;;;;;;;22.17;40.76;100070.52;1654853;85;20987;-68
2022/08/27 02:02:47;;;;;;;7.00;4.92;;;;;;;22.16;40.40;100072.95;1649294;85;21019;-68
2022/08/27 02:05:14;;;;;;;7.70;5.05;;;;;;;22.13;40.50;100075.67;1652092;85;21069;-68
2022/08/27 02:07:41;;;;;;;6.78;5.30;;;;;;;22.13;40.69;100069.41;1654799;85;21102;-68
2022/08/27 02:10:11;;;;;;;4.97;4.58;;;;;;;22.09;40.74;100062.90;1661686;85;21434;-69
2022/08/27 02:12:38;;;;;;;4.92;4.42;;;;;;;22.06;40.78;100064.82;1646319;85;21085;-68
2022/08/27 02:15:09;;;;;;;7.83;4.78;;;;;;;22.03;40.85;100061.28;1637771;86;20987;-68
2022/08/27 02:17:37;;;;;;;7.25;5.28;;;;;;;22.02;41.05;100065.06;1636763;86;21054;-70
2022/08/27 02:20:07;;;;;;;5.25;4.83;;;;;;;22.00;41.20;100065.88;1639159;86;21089;-68
2022/08/27 02:22:35;;;;;;;6.78;6.15;;;;;;;21.96;41.17;100062.89;1639357;86;21034;-69
2022/08/27 02:25:03;;;;;;;5.67;5.17;;;;;;;21.93;41.37;100058.02;1675182;85;21014;-72
2022/08/27 02:27:30;;;;;;;9.10;5.72;;;;;;;21.90;41.47;100062.62;1659721;85;21534;-69
2022/08/27 02:29:56;;;;;;;6.75;5.30;;;;;;;21.87;41.49;100065.87;1662350;85;21018;-68
2022/08/27 02:32:22;;;;;;;8.05;5.25;;;;;;;21.83;41.63;100058.84;1641261;86;21010;-69
2022/08/27 02:34:48;;;;;;;5.95;5.42;;;;;;;21.81;41.75;100065.59;1654918;85;21014;-67
2022/08/27 02:37:15;;;;;;;8.15;5.90;;;;;;;21.79;41.89;100055.01;1639863;86;21015;-68
2022/08/27 02:39:41;;;;;;;13.18;5.62;;;;;;;21.78;42.06;100061.53;1641767;86;20997;-69
2022/08/27 02:42:07;;;;;;;5.85;5.25;;;;;;;21.74;42.18;100068.59;1687735;82;21630;-68
2022/08/27 02:44:34;;;;;;;5.97;5.40;;;;;;;21.71;42.38;100069.92;1684641;84;21005;-69
2022/08/27 02:47:01;;;;;;;8.03;5.47;;;;;;;21.69;42.49;100063.15;1640721;85;22561;-68
2022/08/27 02:49:29;;;;;;;8.18;4.35;;;;;;;21.65;42.65;100061.52;1678360;84;21080;-68
2022/08/27 02:51:56;;;;;;;9.68;5.60;;;;;;;21.63;42.81;100058.81;1680854;84;21524;-66
2022/08/27 02:54:24;;;;;;;6.33;5.72;;;;;;;21.58;43.09;100060.41;1677170;84;21495;-69
2022/08/27 02:56:53;;;;;;;6.47;5.00;;;;;;;21.56;43.13;100049.02;1693888;83;21605;-68
2022/08/27 02:59:20;;;;;;;7.25;5.78;;;;;;;21.53;43.24;100054.16;1712359;83;21093;-68
2022/08/27 03:01:47;;;;;;;5.92;4.95;;;;;;;21.52;43.32;100054.70;1696886;83;22155;-69
2022/08/27 03:04:15;;;;;;;10.23;5.62;;;;;;;21.52;43.40;100052.55;1700851;83;21066;-69
2022/08/27 03:06:42;;;;;;;5.62;4.58;;;;;;;21.50;43.47;100047.93;1709222;83;22080;-68
2022/08/27 03:09:09;;;;;;;5.70;5.10;;;;;;;21.49;43.53;100051.19;1715857;82;21003;-67
2022/08/27 03:11:35;;;;;;;7.25;4.67;;;;;;;21.48;43.60;100049.55;1703697;83;20999;-68
2022/08/27 03:14:01;;;;;;;7.80;5.53;;;;;;;21.49;43.61;100047.64;1693309;83;21104;-68
2022/08/27 03:16:28;;;;;;;7.30;5.50;;;;;;;21.49;43.74;100052.55;1703575;83;21050;-67
2022/08/27 03:18:54;;;;;;;6.00;4.97;;;;;;;21.49;43.80;100051.70;1704360;83;21530;-68
2022/08/27 03:21:24;;;;;;;7.20;5.60;;;;;;;21.50;43.90;100054.70;1700792;83;21167;-67
2022/08/27 03:23:51;;;;;;;10.15;6.20;;;;;;;21.49;43.98;100049.00;1713701;83;20991;-68
2022/08/27 03:26:18;;;;;;;6.08;5.45;;;;;;;21.48;44.18;100055.52;1706361;83;20997;-68
2022/08/27 03:28:45;;;;;;;7.62;5.53;;;;;;;21.45;44.26;100050.07;1712688;83;21026;-67
2022/08/27 03:31:25;;;;;;;7.42;6.15;;;;;;;21.42;44.35;100049.23;1695698;83;21042;-68
2022/08/27 03:33:46;;;;;;;6.05;5.42;;;;;;;21.41;44.43;100052.21;1702084;83;21537;-67
2022/08/27 03:36:13;;;;;;;8.05;5.47;;;;;;;21.40;44.54;100048.70;1699763;83;21022;-67
2022/08/27 03:38:39;;;;;;;6.03;4.87;;;;;;;21.37;44.64;100050.02;1700361;83;21564;-69
2022/08/27 03:41:05;;;;;;;;;;;;;;;21.37;44.70;100043.80;1709581;83;21090;-68
2022/08/27 03:43:32;;;;;;;8.90;5.87;;;;;;;21.37;44.71;100050.57;1704868;82;20159;-67
2022/08/27 03:45:58;;;;;;;5.90;5.28;;;;;;;21.32;44.85;100046.48;1703290;83;21145;-67
2022/08/27 03:48:24;;;;;;;6.17;5.58;;;;;;;21.33;44.88;100048.94;1708302;83;21489;-69
2022/08/27 03:50:50;;;;;;;6.55;5.00;;;;;;;21.36;44.84;100051.64;1698758;83;21063;-68
2022/08/27 03:53:21;;;;;;;;;;;;;;;21.38;44.85;100050.31;1702066;83;21436;-67
2022/08/27 03:55:48;;;;;;;10.08;5.83;;;;;;;21.41;44.87;100053.56;1700516;83;20138;-67
2022/08/27 03:58:15;;;;;;;9.85;5.28;;;;;;;21.36;44.98;100046.22;1704672;83;21530;-67
2022/08/27 04:00:42;;;;;;;8.60;5.33;;;;;;;21.38;45.01;100042.17;1703571;83;21157;-68
2022/08/27 04:03:11;;;;;;;10.23;4.58;;;;;;;21.41;45.00;100039.46;1704108;83;21018;-68
2022/08/27 04:05:38;;;;;;;7.20;5.00;;;;;;;21.44;45.00;100036.26;1699101;83;21094;-69
2022/08/27 04:08:05;;;;;;;8.45;4.60;;;;;;;21.47;44.99;100040.32;1713182;83;21012;-69
2022/08/27 04:10:32;;;;;;;7.47;5.05;;;;;;;21.49;45.02;100047.13;1710303;83;21043;-69
2022/08/27 04:12:58;;;;;;;7.03;5.37;;;;;;;21.52;44.96;100036.27;1702202;83;21006;-72
2022/08/27 04:15:25;;;;;;;6.28;5.37;;;;;;;21.56;44.94;100038.72;1700951;81;21100;-68
2022/08/27 04:17:52;;;;;;;9.53;5.10;;;;;;;21.60;44.92;100040.35;1704340;83;21629;-69
2022/08/27 04:20:19;;;;;;;11.22;4.97;;;;;;;21.63;44.88;100035.20;1707981;83;21006;-69
2022/08/27 04:22:46;;;;;;;6.25;4.70;;;;;;;21.63;44.85;100026.27;1695539;83;21014;-67
2022/08/27 04:25:12;;;;;;;9.80;4.08;;;;;;;21.71;44.84;100032.50;1700233;83;21522;-69
2022/08/27 04:27:39;;;;;;;5.58;4.95;;;;;;;21.74;44.80;100033.33;1703420;83;20990;-68
2022/08/27 04:30:08;;;;;;;6.87;4.58;;;;;;;21.80;44.80;100035.50;1707980;83;21063;-71
2022/08/27 04:32:34;;;;;;;6.55;4.40;;;;;;;21.85;44.82;100035.48;1696915;83;21008;-68
2022/08/27 04:35:00;;;;;;;9.40;4.70;;;;;;;21.88;44.81;100037.11;1695366;83;21033;-69
2022/08/27 04:37:31;;;;;;;6.45;4.28;;;;;;;21.92;44.80;100027.89;1698154;83;20988;-67
2022/08/27 04:39:58;;;;;;;5.30;4.70;;;;;;;21.97;44.81;100023.83;1707216;83;21043;-69
2022/08/27 04:42:25;;;;;;;7.20;4.03;;;;;;;22.01;44.83;100025.46;1696245;83;21085;-68
2022/08/27 04:44:52;;;;;;;10.93;5.70;;;;;;;22.05;44.91;100021.11;1687249;83;21087;-68
2022/08/27 04:47:21;;;;;;;7.53;3.95;;;;;;;22.10;44.74;100019.77;1704628;83;21050;-69
2022/08/27 04:49:47;;;;;;;6.95;4.92;;;;;;;22.13;44.67;100026.81;1700875;83;21058;-69
2022/08/27 04:52:14;;;;;;;7.50;4.92;;;;;;;22.16;44.66;100022.73;1697011;83;20999;-68
2022/08/27 04:54:41;;;;;;;4.92;4.45;;;;;;;22.16;44.70;100026.25;1699893;83;21713;-68
2022/08/27 04:57:08;;;;;;;7.10;4.05;;;;;;;22.18;44.64;100021.11;1705586;83;21138;-68
2022/08/27 04:59:36;;;;;;;6.03;4.67;;;;;;;22.18;44.67;100015.68;1709590;83;21015;-68
2022/08/27 05:02:07;;;;;;;11.50;4.87;;;;;;;22.19;44.70;100029.51;1698993;83;21030;-68
2022/08/27 05:04:39;;;;;;;5.65;4.17;;;;;;;22.19;44.67;100027.63;1700037;83;20996;-75
2022/08/27 05:07:08;;;;;;;6.97;4.83;;;;;;;22.20;44.65;100024.36;1720259;83;21109;-69
2022/08/27 05:09:35;;;;;;;9.33;5.97;;;;;;;22.19;44.65;100020.84;1696235;83;21530;-67
2022/08/27 05:12:03;;;;;;;7.97;4.75;;;;;;;21.86;44.70;99982.31;1697005;83;21497;-68
2022/08/27 05:14:31;;;;;;;8.20;4.00;;;;;;;22.17;44.84;100048.80;1702634;83;21140;-68
2022/08/27 05:16:59;;;;;;;4.47;4.05;;;;;;;22.20;44.84;100031.95;1700337;83;21045;-69
2022/08/27 05:19:26;;;;;;;5.40;3.80;;;;;;;22.21;44.79;100034.11;1706765;83;21105;-69
2022/08/27 05:21:54;;;;;;;7.65;5.00;;;;;;;22.24;44.75;100037.66;1701158;83;21046;-68
2022/08/27 05:24:21;;;;;;;6.78;3.50;;;;;;;22.23;44.76;100039.56;1697792;83;21025;-68
2022/08/27 05:26:48;;;;;;;5.95;4.25;;;;;;;22.25;44.78;100038.77;1706810;83;21057;-69
2022/08/27 05:29:16;;;;;;;4.12;3.75;;;;;;;22.27;44.81;100032.52;1697011;83;21071;-69
2022/08/27 05:31:43;;;;;;;6.72;3.87;;;;;;;22.28;44.85;100028.73;1707150;83;21013;-68
2022/08/27 05:34:10;;;;;;;7.05;3.83;;;;;;;22.29;44.85;100031.70;1696387;82;20998;-70
2022/08/27 05:36:39;;;;;;;8.98;4.08;;;;;;;22.31;44.86;100034.16;1699220;83;20977;-69
2022/08/27 05:39:06;;;;;;;5.28;3.55;;;;;;;22.31;44.88;100030.08;1700220;83;21058;-68
2022/08/27 05:41:34;;;;;;;3.92;3.55;;;;;;;22.31;44.84;100030.89;1713225;83;21129;-69
2022/08/27 05:44:08;;;;;;;5.00;4.05;;;;;;;22.33;45.07;100031.97;1703757;83;21053;-69
2022/08/27 05:46:37;;;;;;;9.98;5.00;;;;;;;22.32;45.00;100026.26;1693674;83;21509;-70
2022/08/27 05:49:04;;;;;;;4.87;3.42;;;;;;;22.28;45.09;100016.52;1716417;83;21011;-68
2022/08/27 05:51:36;;;;;;;6.03;3.80;;;;;;;22.28;45.21;100022.47;1707634;83;21091;-68
2022/08/27 05:54:09;;;;;;;5.42;3.10;;;;;;;22.28;45.25;100020.59;1700850;83;21500;-69
2022/08/27 05:56:37;;;;;;;15.43;3.77;;;;;;;22.30;45.48;100022.48;1707957;83;21022;-68
2022/08/27 06:01:52;;;;;;;12.93;4.85;;;;;;;22.28;45.57;100020.59;1707963;83;21025;-68
2022/08/27 06:04:20;;;;;;;6.75;4.08;;;;;;;22.28;45.64;100021.11;1709594;83;21017;-69
2022/08/27 06:06:49;;;;;;;5.00;3.52;;;;;;;22.28;45.65;100019.23;1699620;83;21030;-70
2022/08/27 06:09:20;;;;;;;9.85;4.53;;;;;;;22.29;45.79;100012.70;1711103;83;21042;-68
2022/08/27 06:11:47;;;;;;;10.98;3.95;;;;;;;22.31;45.91;100015.14;1683989;83;21109;-68
2022/08/27 06:14:14;;;;;;;4.72;3.65;;;;;;;22.32;45.94;100014.05;1723560;83;21047;-69
2022/08/27 06:16:41;;;;;;;8.75;4.70;;;;;;;22.32;45.89;100017.59;1712459;83;21060;-68
2022/08/27 06:19:13;;;;;;;9.53;4.00;;;;;;;22.32;46.01;100021.66;1698947;83;21518;-71
2022/08/27 06:21:41;;;;;;;4.97;3.87;;;;;;;22.31;46.04;100013.78;1704798;83;21042;-70
2022/08/27 06:24:11;;;;;;;8.88;4.35;;;;;;;22.31;46.24;100021.38;1689822;83;21557;-71
2022/08/27 06:26:38;;;;;;;5.58;4.12;;;;;;;22.28;46.33;100016.52;1705717;83;21077;-69
2022/08/27 06:29:07;;;;;;;7.10;4.85;;;;;;;22.25;46.43;100026.55;1706190;83;21175;-68
2022/08/27 06:31:34;;;;;;;9.05;5.17;;;;;;;22.24;46.48;100024.88;1703730;83;21066;-71
2022/08/27 06:34:05;;;;;;;6.85;4.08;;;;;;;22.26;46.59;100021.93;1699480;83;21029;-69
2022/08/27 06:36:35;;;;;;;8.65;4.65;;;;;;;22.27;46.59;100021.66;1697922;83;20966;-69
2022/08/27 06:39:02;;;;;;;13.18;4.78;;;;;;;22.27;46.61;100020.30;1703066;83;21174;-71
2022/08/27 06:41:28;;;;;;;9.45;5.05;;;;;;;22.28;46.68;100015.16;1699835;83;21471;-69
2022/08/27 06:43:57;;;;;;;5.53;3.58;;;;;;;22.29;46.64;100009.98;1703765;83;22540;-68
2022/08/27 06:46:28;;;;;;;10.28;4.03;;;;;;;22.31;46.62;100005.09;1704222;83;21018;-70
2022/08/27 06:48:57;;;;;;;5.17;3.42;;;;;;;22.35;46.66;99998.02;1705608;83;21098;-67
2022/08/27 06:51:28;;;;;;;4.45;3.40;;;;;;;22.40;46.51;99999.92;1710361;83;21495;-71
2022/08/27 06:53:58;;;;;;;6.85;4.00;;;;;;;22.43;46.33;100003.98;1669755;85;21031;-68
2022/08/27 06:56:25;;;;;;;6.42;4.20;;;;;;;22.46;46.31;100006.16;1672400;83;21495;-69
2022/08/27 06:58:56;;;;;;;8.45;4.55;;;;;;;22.48;46.25;100002.06;1702757;83;21483;-70
2022/08/27 07:01:28;;;;;;;8.43;3.77;;;;;;;22.52;46.23;100006.41;1668236;84;21071;-70
2022/08/27 07:03:57;;;;;;;5.08;3.47;;;;;;;22.54;46.13;100010.46;1694093;83;20997;-69
2022/08/27 07:06:25;;;;;;;8.55;4.78;;;;;;;22.60;46.16;100013.17;1711912;83;20971;-69
2022/08/27 07:08:52;;;;;;;10.65;4.55;;;;;;;22.65;46.05;100012.61;1679593;84;21025;-68
2022/08/27 07:11:18;;;;;;;8.30;4.08;;;;;;;22.71;45.94;100012.05;1679339;84;21544;-69
2022/08/27 07:13:47;;;;;;;13.20;5.10;;;;;;;22.76;45.82;100008.52;1676141;84;21014;-72
2022/08/27 07:16:20;;;;;;;9.63;5.00;;;;;;;22.81;45.60;100009.31;1678354;84;21113;-69
2022/08/27 07:18:50;;;;;;;13.10;4.12;;;;;;;22.88;45.48;100010.36;1677043;84;22422;-70
2022/08/27 07:21:18;;;;;;;6.55;4.75;;;;;;;22.95;45.56;100008.16;1685698;84;21007;-68
2022/08/27 07:23:45;;;;;;;7.65;4.20;;;;;;;23.01;46.37;100008.39;1707597;82;21014;-70
2022/08/27 07:26:13;;;;;;;8.58;4.55;;;;;;;23.08;46.17;100012.20;1716334;82;21024;-72
2022/08/27 07:28:43;;;;;;;12.15;4.85;;;;;;;23.15;46.45;100005.92;1673337;84;21059;-69
2022/08/27 07:32:51;;;;;;;9.98;5.10;;;;;;;23.33;45.09;99998.45;1791694;78;22958;-69
2022/08/27 07:35:18;;;;;;;8.23;5.62;;;;;;;23.39;44.67;99992.44;1721287;80;20976;-71
2022/08/27 07:37:44;;;;;;;8.95;5.17;;;;;;;23.49;44.43;99991.58;1714309;81;21020;-70
2022/08/27 07:40:14;;;;;;;8.35;5.17;;;;;;;23.58;44.13;99978.97;1699849;82;21630;-69
2022/08/27 07:45:29;;;;;;;7.28;5.00;;;;;;;23.43;43.81;99929.61;1683400;82;21401;-68
2022/08/27 07:47:55;;;;;;;11.60;4.37;;;;;;;23.82;43.64;99984.53;1666773;84;20975;-69
2022/08/27 07:50:22;;;;;;;7.35;4.10;;;;;;;23.89;43.48;99976.05;1669720;84;21098;-71
2022/08/27 07:52:57;;;;;;;6.92;5.05;;;;;;;23.96;43.42;99975.70;1709914;81;21101;-70
2022/08/27 07:55:22;;;;;;;10.65;3.25;;;;;;;23.99;43.01;99977.86;1733089;81;21034;-71
2022/08/27 07:57:48;;;;;;;8.55;4.72;;;;;;;24.10;42.73;99979.39;1719344;82;21065;-72
2022/08/27 08:00:14;;;;;;;6.92;3.02;;;;;;;24.17;42.78;99978.50;1744754;80;21106;-70
2022/08/27 08:02:43;;;;;;;6.58;3.25;;;;;;;24.22;41.82;99971.66;1749194;80;21056;-72
2022/08/27 08:05:11;;;;;;;7.70;3.37;;;;;;;24.30;41.79;99982.46;1746234;80;21015;-70
2022/08/27 08:07:38;;;;;;;6.78;3.30;;;;;;;24.37;41.25;99982.10;1744794;79;21094;-69
2022/08/27 08:10:08;;;;;;;4.65;2.92;;;;;;;24.47;40.88;99992.91;1750733;80;21021;-69
2022/08/27 08:12:38;;;;;;;7.10;3.30;;;;;;;24.56;39.88;99993.89;1751364;80;21487;-69
2022/08/27 08:15:08;;;;;;;4.05;3.10;;;;;;;24.66;39.88;99995.72;1749386;80;21059;-71
2022/08/27 08:17:37;;;;;;;6.25;3.20;;;;;;;24.77;39.75;99988.20;1754433;80;21030;-69
2022/08/27 08:20:06;;;;;;;5.60;3.27;;;;;;;24.90;39.29;99982.03;1753331;80;21101;-69
2022/08/27 08:22:34;;;;;;;5.83;3.65;;;;;;;25.00;39.45;99982.48;1759209;80;20991;-69
2022/08/27 08:25:01;;;;;;;7.30;3.70;;;;;;;25.16;39.14;99983.06;1775386;80;21189;-70
2022/08/27 08:27:27;;;;;;;4.28;3.87;;;;;;;25.26;39.18;99980.24;1774015;80;21018;-71
2022/08/27 08:29:54;;;;;;;5.10;3.62;;;;;;;25.40;39.09;99977.56;1705922;80;21122;-69
2022/08/27 08:32:20;;;;;;;5.92;3.55;;;;;;;25.56;38.98;99972.67;1683220;85;21044;-70
2022/08/27 08:34:47;;;;;;;3.95;2.62;;;;;;;25.71;38.54;99975.17;1673898;84;21079;-68
2022/08/27 08:37:13;;;;;;;4.10;3.00;;;;;;;25.60;38.08;99923.23;1741248;79;21161;-70
2022/08/27 08:39:40;;;;;;;3.55;3.15;;;;;;;25.92;37.92;99954.36;1763991;80;21001;-69
2022/08/27 08:42:11;;;;;;;9.20;2.72;;;;;;;25.98;38.06;99966.27;1766612;80;21579;-74
2022/08/27 08:44:51;;;;;;;4.03;2.98;;;;;;;26.07;37.89;99965.56;1745527;80;21002;-69
2022/08/27 08:47:26;;;;;;;9.05;2.77;;;;;;;26.14;37.27;99976.91;1726902;82;21526;-69
2022/08/27 08:50:22;;;;;;;5.60;2.30;;;;;;;26.20;37.31;99968.33;1732478;81;21029;-67
2022/08/27 08:52:57;;;;;;;7.05;2.30;;;;;;;26.29;36.96;99956.69;1739800;81;21081;-71
2022/08/27 08:55:47;;;;;;;7.83;3.22;;;;;;;26.37;37.03;99954.61;1707149;81;21205;-70
2022/08/27 08:58:44;;;;;;;10.15;2.80;;;;;;;26.49;36.45;99968.59;1669556;85;21401;-73
2022/08/27 09:01:15;;;;;;;2.60;2.27;;;;;;;26.64;36.13;99968.88;1739833;79;21068;-71
2022/08/27 09:03:47;;;;;;;5.53;1.90;;;;;;;26.80;35.96;99959.25;1716376;81;21031;-70
2022/08/27 09:06:21;;;;;;;5.45;2.30;;;;;;;26.94;35.64;99946.91;1725620;80;21295;-69
2022/08/27 09:08:48;;;;;;;3.25;2.12;;;;;;;27.08;34.67;99960.53;1754053;80;21174;-68
2022/08/27 09:11:33;;;;;;;2.83;2.52;;;;;;;27.17;34.79;99956.52;1761630;80;21083;-69
2022/08/27 09:14:21;;;;;;;4.50;2.42;;;;;;;27.25;34.45;99939.38;1689723;82;21085;-72
2022/08/27 09:16:47;;;;;;;3.90;2.42;;;;;;;27.34;34.59;99949.84;1649283;85;21437;-68
2022/08/27 09:19:13;;;;;;;3.98;2.22;;;;;;;27.46;33.68;99949.84;1660471;84;21034;-71
2022/08/27 09:21:51;;;;;;;3.30;2.35;;;;;;;27.51;33.11;99962.84;1743229;80;21133;-72
2022/08/27 09:24:31;;;;;;;2.92;2.27;;;;;;;27.54;33.40;99960.06;1737167;81;21017;-68
2022/08/27 09:26:57;;;;;;;6.40;2.62;;;;;;;27.56;32.85;99943.57;1733557;80;21155;-70
2022/08/27 09:29:27;;;;;;;5.42;2.58;;;;;;;27.63;32.21;99975.16;1714573;83;21660;-71
2022/08/27 09:31:59;;;;;;;7.95;2.12;;;;;;;27.65;32.75;99955.95;1723054;82;21006;-68
2022/08/27 09:34:33;;;;;;;11.68;2.20;;;;;;;27.68;32.53;99956.69;1659055;82;20998;-72
2022/08/27 09:37:16;;;;;;;17.62;2.90;;;;;;;27.75;31.66;99976.23;1657997;86;21111;-70
2022/08/27 09:39:54;;;;;;;12.28;2.83;;;;;;;27.85;29.97;99949.70;1700511;82;21178;-70
2022/08/27 09:42:28;;;;;;;22.15;4.65;;;;;;;27.91;31.00;99953.95;1713734;83;21050;-69
2022/08/27 09:44:56;;;;;;;9.90;2.98;;;;;;;27.96;30.35;99956.56;1737551;80;21010;-72
2022/08/27 09:47:23;;;;;;;15.03;3.40;;;;;;;28.07;30.71;99942.05;1734552;81;21514;-69
2022/08/27 09:50:03;;;;;;;13.70;3.45;;;;;;;28.20;30.73;99967.70;1733885;81;21539;-69
2022/08/27 09:52:37;;;;;;;11.95;4.35;;;;;;;28.31;30.18;99944.38;1720491;81;21026;-70
2022/08/27 09:55:05;;;;;;;15.03;3.65;;;;;;;28.40;29.85;99943.84;1676290;82;21068;-69
2022/08/27 09:57:37;;;;;;;38.35;6.12;;;;;;;28.50;29.39;99933.97;1666292;82;21156;-70
2022/08/27 10:00:09;;;;;;;26.15;4.30;;;;;;;28.63;27.81;99958.86;1687541;83;21074;-70
2022/08/27 10:02:48;;;;;;;30.68;6.00;;;;;;;28.72;27.66;99943.23;1654840;83;21191;-70
2022/08/27 10:05:23;;;;;;;20.15;4.08;;;;;;;28.79;27.61;99939.46;1665360;84;21081;-69
2022/08/27 10:08:00;;;;;;;17.52;5.12;;;;;;;28.85;27.64;99939.55;1685960;82;21842;-68
2022/08/27 10:11:02;;;;;;;34.10;5.50;;;;;;;28.90;27.84;99939.97;1728581;82;21007;-74
2022/08/27 10:13:40;;;;;;;25.20;4.37;;;;;;;28.99;27.60;99944.08;1744203;79;21161;-71
2022/08/27 10:16:32;;;;;;;22.05;4.22;;;;;;;29.09;27.13;99934.17;1749231;81;21031;-70
2022/08/27 10:19:16;;;;;;;19.30;4.28;;;;;;;29.16;27.13;99933.70;1750673;80;21141;-69
2022/08/27 10:21:57;;;;;;;13.20;4.05;;;;;;;29.22;26.99;99937.34;1684647;83;21727;-70
2022/08/27 10:25:05;;;;;;;23.75;4.70;;;;;;;29.28;27.31;99929.75;1714860;78;21095;-72
2022/08/27 10:28:07;;;;;;;16.73;4.78;;;;;;;29.35;27.35;99945.72;1728113;79;21175;-71
2022/08/27 10:30:55;;;;;;;19.12;4.33;;;;;;;29.37;27.52;99946.23;1714748;81;21497;-70
2022/08/27 10:33:47;;;;;;;17.85;3.95;;;;;;;29.40;27.36;99949.67;1721116;80;21693;-71
2022/08/27 10:36:57;;;;;;;13.70;3.30;;;;;;;29.42;27.84;99946.04;1728728;81;21972;-71
2022/08/27 10:40:13;;;;;;;14.40;3.75;;;;;;;29.43;28.15;99943.55;1735677;81;21008;-68
2022/08/27 10:43:16;;;;;;;14.93;3.55;;;;;;;29.42;28.40;99935.06;1641656;86;21110;-70
2022/08/27 10:45:57;;;;;;;12.43;4.28;;;;;;;29.48;28.43;99942.02;1675473;80;21502;-69
2022/08/27 10:48:46;;;;;;;17.12;3.62;;;;;;;29.53;28.51;99934.16;1663134;85;21157;-70
2022/08/27 10:51:27;;;;;;;8.05;3.65;;;;;;;29.56;28.41;99940.39;1747819;79;21165;-69
2022/08/27 10:54:29;;;;;;;9.28;2.77;;;;;;;29.58;28.83;99940.30;1767719;81;20997;-69
2022/08/27 10:57:13;;;;;;;11.65;4.03;;;;;;;29.61;28.74;99938.28;1761814;79;21066;-68
2022/08/27 10:59:48;;;;;;;15.70;4.05;;;;;;;29.62;28.70;99936.33;1704986;81;21008;-71
2022/08/27 11:02:25;;;;;;;14.93;4.45;;;;;;;29.60;29.03;99939.97;1716072;81;21098;-71
2022/08/27 11:04:59;;;;;;;7.58;2.95;;;;;;;29.57;29.43;99952.97;1721377;81;21120;-72
2022/08/27 11:07:34;;;;;;;11.03;3.62;;;;;;;29.55;29.76;99939.56;1704938;80;21609;-70
2022/08/27 11:10:23;;;;;;;13.43;3.52;;;;;;;29.58;29.85;99938.13;1704574;82;20997;-70
2022/08/27 11:12:55;;;;;;;10.18;3.98;;;;;;;29.63;29.68;99933.27;1716827;81;21029;-71
2022/08/27 11:15:34;;;;;;;11.25;3.20;;;;;;;29.68;29.06;99938.56;1730890;81;20965;-71
2022/08/27 11:18:05;;;;;;;10.70;2.90;;;;;;;29.68;29.17;99933.64;1701875;79;21080;-70
2022/08/27 11:20:52;;;;;;;16.32;3.83;;;;;;;29.76;28.97;99937.53;1682793;83;22027;-76
2022/08/27 11:23:24;;;;;;;14.58;3.90;;;;;;;29.82;28.78;99929.34;1723396;81;21651;-72
2022/08/27 11:26:00;;;;;;;12.82;2.70;;;;;;;29.90;28.21;99924.41;1749948;80;21321;-71
2022/08/27 11:28:53;;;;;;;7.70;2.10;;;;;;;29.98;26.89;99931.02;1744327;80;21094;-70
2022/08/27 11:31:47;;;;;;;11.35;2.92;;;;;;;30.03;25.96;99930.27;1770922;77;21034;-73
2022/08/27 11:34:38;;;;;;;8.85;2.52;;;;;;;30.04;25.71;99933.23;1789538;78;21032;-73
2022/08/27 11:37:34;;;;;;;13.58;2.75;;;;;;;30.03;25.88;99929.47;1784129;78;21075;-72
2022/08/27 11:40:23;;;;;;;10.70;1.95;;;;;;;30.02;26.17;99921.77;1748491;80;20974;-77
2022/08/27 11:42:54;;;;;;;17.95;2.77;;;;;;;29.99;26.48;99926.56;1735990;80;21080;-77
2022/08/27 11:45:37;;;;;;;7.35;2.27;;;;;;;30.00;26.47;99931.48;1750344;79;20950;-70
2022/08/27 11:48:26;;;;;;;8.30;2.20;;;;;;;30.01;26.24;99916.63;1718399;81;21066;-71
2022/08/27 11:51:07;;;;;;;9.20;2.10;;;;;;;30.00;26.20;99919.13;1700241;82;21467;-70
2022/08/27 11:53:39;;;;;;;3.75;1.40;;;;;;;29.99;26.15;99923.82;1704024;82;21249;-72